Flight Track Log - Related Links

Times and Time Zones

All times are in EDT time to prevent confusion due to time zone crossing. See the N589H flight status page for this flight to view local times or setup timezone preferences in your user account.

Time Position Orientation Groundspeed Altitude Reporting Facility
EDT Latitude Longitude Course Direction KTS MPH feet Rate Location/Type
Mon 02:17:33 AM 42.2714 -82.9758 202° Southwest 154 177 1,200  Level Cleveland Center
Mon 02:17:39 AM 42.2672 -82.9781 202° Southwest 158 182 1,400 1,647 Climbing Cleveland Center
Mon 02:18:24 AM 42.2358 -82.9914 197° South 217 250 2,600 2,066 Climbing Cleveland Center
Mon 02:18:40 AM 42.2158 -82.9908 179° South 194 223 3,500 2,700 Climbing Cleveland Center
Mon 02:19:24 AM 42.1839 -82.9914 181° South 192 221 5,300 2,600 Climbing Cleveland Center
Mon 02:19:40 AM 42.1656 -82.9925 183° South 184 212 6,100 2,200 Climbing Cleveland Center
Mon 02:20:24 AM 42.1300 -82.9886 175° South 190 219 7,500 2,135 Climbing Cleveland Center
Mon 02:21:24 AM 42.0736 -82.9872 179° South 196 226 9,800 2,100 Climbing Cleveland Center
Mon 02:22:24 AM 42.0150 -82.9844 178° South 203 234 11,700 1,750 Climbing Cleveland Center
Mon 02:23:24 AM 41.9489 -82.9831 179° South 232 267 13,300 1,636 Climbing Cleveland Center
Mon 02:24:25 AM 41.8803 -82.9794 178° South 241 277 15,000 1,636 Climbing Cleveland Center
Mon 02:25:25 AM 41.8111 -82.9772 179° South 243 280 16,600 1,400 Climbing Cleveland Center
Mon 02:26:25 AM 41.7381 -82.9742 178° South 259 298 17,800 1,000 Climbing Cleveland Center
Mon 02:27:25 AM 41.6617 -82.9719 179° South 271 312 18,600 1,200 Climbing Cleveland Center
Mon 02:28:25 AM 41.5831 -82.9689 178° South 280 322 20,200 1,600 Climbing Cleveland Center
Mon 02:29:25 AM 41.5067 -82.9656 178° South 279 321 21,800 1,300 Climbing Cleveland Center
Mon 02:30:25 AM 41.4314 -82.9647 180° South 272 313 22,800 1,050 Climbing Cleveland Center
Mon 02:31:25 AM 41.3494 -82.9611 178° South 292 336 23,900 1,150 Climbing Cleveland Center
Mon 02:32:25 AM 41.2661 -82.9569 178° South 295 339 25,100 1,140 Climbing Cleveland Center
Mon 02:33:26 AM 41.1844 -82.9542 179° South 295 339 26,200 1,190 Climbing Cleveland Center
Mon 02:34:26 AM 41.0956 -82.9522 179° South 295 339 27,500 1,250 Climbing Cleveland Center
Mon 02:35:26 AM 41.0139 -82.9481 178° South 296 341 28,700 1,100 Climbing Cleveland Center
Mon 02:36:26 AM 40.9317 -82.9450 178° South 294 338 29,700 973 Climbing Cleveland Center
Mon 02:37:17 AM 40.8639 -82.9411 178° South 296 341 30,500 865 Climbing Indianapolis Center
Mon 02:38:17 AM 40.7789 -82.9389 179° South 302 348 31,300 700 Climbing Indianapolis Center
Mon 02:39:17 AM 40.6903 -82.9353 178° South 314 361 31,900 347 Climbing Indianapolis Center
Mon 02:40:18 AM 40.5986 -82.9311 178° South 326 375 32,000 50 Climbing Indianapolis Center
Mon 02:41:18 AM 40.5022 -82.9283 179° South 340 391 32,000  Level Indianapolis Center
Mon 02:42:18 AM 40.4019 -82.9244 178° South 354 407 32,000  Level Indianapolis Center
Mon 02:43:18 AM 40.2989 -82.9200 178° South 365 420 32,000  Level Indianapolis Center
Mon 02:44:18 AM 40.1958 -82.9164 178° South 367 422 32,000  Level Indianapolis Center
Mon 02:45:18 AM 40.0919 -82.9136 179° South 369 425 32,000  Level Indianapolis Center
Mon 02:46:18 AM 39.9883 -82.9092 178° South 369 425 32,000  Level Indianapolis Center
Mon 02:47:18 AM 39.8847 -82.9050 178° South 369 425 32,000  Level Indianapolis Center
Mon 02:48:18 AM 39.7811 -82.9025 179° South 369 425 32,000  Level Indianapolis Center
Mon 02:49:18 AM 39.6781 -82.8989 178° South 369 425 32,000  Level Indianapolis Center
Mon 02:50:18 AM 39.5744 -82.8950 178° South 369 425 32,000  Level Indianapolis Center
Mon 02:51:18 AM 39.4708 -82.8903 178° South 370 426 32,000  Level Indianapolis Center
Mon 02:52:18 AM 39.3672 -82.8861 178° South 370 426 32,000  Level Indianapolis Center
Mon 02:53:18 AM 39.2633 -82.8822 178° South 370 426 32,000  Level Indianapolis Center
Mon 02:54:19 AM 39.1644 -82.8781 178° South 371 427 32,000  Level Indianapolis Center
Mon 02:55:19 AM 39.0597 -82.8744 178° South 371 427 32,000  Level Indianapolis Center
Mon 02:56:19 AM 38.9556 -82.8711 179° South 372 428 32,000  Level Indianapolis Center
Mon 02:57:19 AM 38.8514 -82.8681 179° South 373 429 32,000  Level Indianapolis Center
Mon 02:58:19 AM 38.7492 -82.8639 178° South 372 428 32,000  Level Indianapolis Center
Mon 02:59:19 AM 38.6383 -82.8597 178° South 372 428 32,000  Level Indianapolis Center
Mon 03:00:19 AM 38.5344 -82.8558 178° South 373 429 32,000  Level Indianapolis Center
Mon 03:01:19 AM 38.4322 -82.8531 179° South 372 428 32,000  Level Indianapolis Center
Mon 03:02:19 AM 38.3297 -82.8489 178° South 370 426 32,000  Level Indianapolis Center
Mon 03:03:19 AM 38.2281 -82.8456 179° South 365 420 32,000  Level Indianapolis Center
Mon 03:04:19 AM 38.1439 -82.8425 178° South 365 420 32,000  Level Indianapolis Center
Mon 03:05:20 AM 38.0431 -82.8389 178° South 364 419 32,000  Level Indianapolis Center
Mon 03:06:20 AM 37.9411 -82.8358 179° South 364 419 32,000  Level Indianapolis Center
Mon 03:07:20 AM 37.8408 -82.8314 178° South 364 419 32,000  Level Indianapolis Center
Mon 03:08:20 AM 37.7403 -82.8289 179° South 363 418 32,000  Level Indianapolis Center
Mon 03:09:20 AM 37.6394 -82.8256 179° South 363 418 32,000  Level Indianapolis Center
Mon 03:10:20 AM 37.5383 -82.8231 179° South 363 418 32,000  Level Indianapolis Center
Mon 03:11:20 AM 37.4369 -82.8200 179° South 363 418 32,000  Level Indianapolis Center
Mon 03:12:20 AM 37.3369 -82.8164 178° South 361 415 32,000  Level Indianapolis Center
Mon 03:13:20 AM 37.2361 -82.8139 179° South 361 415 32,000  Level Indianapolis Center
Mon 03:14:20 AM 37.1358 -82.8100 178° South 360 414 32,000  Level Indianapolis Center
Mon 03:15:20 AM 37.0350 -82.8072 179° South 360 414 32,000  Level Indianapolis Center
Mon 03:16:20 AM 36.9389 -82.8053 179° South 360 414 32,000  Level Indianapolis Center
Mon 03:17:20 AM 36.8325 -82.8006 178° South 356 410 32,000  Level Indianapolis Center
Mon 04:01:26 AM 32.5086 -82.6658 179° South 362 417 32,000  Level Jacksonville Center
Mon 04:02:00 AM 32.8228 -82.6550 179° South  Level FlightAware Approximate
Mon 04:02:26 AM 32.4128 -82.6636 179° South 343 395 32,000  Level Jacksonville Center
Mon 04:03:00 AM 32.7330 -82.6524 179° South  Level FlightAware Approximate
Mon 04:03:26 AM 32.3125 -82.6592 178° South 338 389 32,000  Level Jacksonville Center
Mon 04:04:00 AM 32.6432 -82.6498 179° South  Level FlightAware Approximate
Mon 04:04:26 AM 32.2164 -82.6569 179° South 349 402 32,000  Level Jacksonville Center
Mon 04:05:00 AM 32.5534 -82.6476 179° South  Level FlightAware Approximate
Mon 04:06:00 AM 32.0761 -82.6437 175° South  Level FlightAware Approximate
Mon 04:13:00 AM 31.4476 -82.6196 179° South  Level FlightAware Approximate
Mon 04:14:00 AM 31.3578 -82.6172 179° South  Level FlightAware Approximate
Mon 04:15:00 AM 31.2680 -82.6148 179° South  Level FlightAware Approximate
Mon 04:16:00 AM 31.1782 -82.6125 179° South  Level FlightAware Approximate
Mon 04:17:00 AM 31.0885 -82.6101 179° South  Level FlightAware Approximate
Mon 04:18:00 AM 30.9987 -82.6078 179° South  Level FlightAware Approximate
Mon 04:19:00 AM 30.9089 -82.6054 179° South  Level FlightAware Approximate
Mon 04:20:00 AM 30.8191 -82.6031 179° South  Level FlightAware Approximate
Mon 04:21:00 AM 30.7293 -82.6008 179° South  Level FlightAware Approximate
Mon 04:22:00 AM 30.6396 -82.5982 179° South  Level FlightAware Approximate
Mon 04:23:00 AM 30.5498 -82.5956 179° South  Level FlightAware Approximate
Mon 04:24:00 AM 30.4600 -82.5929 179° South  Level FlightAware Approximate
Mon 04:25:00 AM 30.3702 -82.5903 179° South  Level FlightAware Approximate
Mon 04:26:00 AM 30.2805 -82.5876 179° South  Level FlightAware Approximate
Mon 04:27:00 AM 30.1907 -82.5850 179° South  Level FlightAware Approximate
Mon 04:28:00 AM 30.1009 -82.5833 180° South  Level FlightAware Approximate
Mon 04:29:00 AM 30.0111 -82.5833 180° South  Level FlightAware Approximate
Mon 04:30:00 AM 29.9214 -82.5816 173° South  Level FlightAware Approximate
Mon 04:31:00 AM 29.8323 -82.5689 173° South  Level FlightAware Approximate
Mon 04:32:00 AM 29.7426 -82.5667 180° South  Level FlightAware Approximate
Mon 04:33:00 AM 29.6528 -82.5667 180° South  Level FlightAware Approximate
Mon 04:34:00 AM 29.5630 -82.5667 180° South  Level FlightAware Approximate
Mon 04:35:00 AM 29.4732 -82.5667 180° South  Level FlightAware Approximate
Mon 04:36:00 AM 29.3834 -82.5667 180° South  Level FlightAware Approximate
Mon 04:37:00 AM 29.2937 -82.5603 176° South  Level FlightAware Approximate
Mon 04:38:00 AM 29.2041 -82.5539 176° South  Level FlightAware Approximate
Mon 04:39:00 AM 29.1144 -82.5500 180° South  Level FlightAware Approximate
Mon 04:40:00 AM 29.0246 -82.5500 180° South  Level FlightAware Approximate
Mon 04:41:00 AM 28.9348 -82.5500 180° South  Level FlightAware Approximate
Mon 04:42:00 AM 28.8450 -82.5500 180° South  Level FlightAware Approximate
Mon 04:43:00 AM 28.7552 -82.5500 180° South  Level FlightAware Approximate
Mon 04:44:00 AM 28.6658 -82.5443 172° South  Level FlightAware Approximate
Mon 04:45:00 AM 28.5767 -82.5333 180° South  Level FlightAware Approximate
Mon 04:46:00 AM 28.4869 -82.5333 180° South  Level FlightAware Approximate
Mon 04:47:00 AM 28.3971 -82.5333 180° South  Level FlightAware Approximate
Mon 04:48:00 AM 28.3072 -82.5333 180° South  Level FlightAware Approximate
Mon 04:49:00 AM 28.2174 -82.5333 180° South  Level FlightAware Approximate
Mon 04:50:00 AM 28.1276 -82.5333 180° South  Level FlightAware Approximate
Mon 04:51:00 AM 28.0380 -82.5309 170° South  Level FlightAware Approximate
Mon 04:52:00 AM 27.9755 -82.5332 170° South  Level Estimated
Mon 04:53:00 AM 27.9755 -82.5332 170° South  Level Estimated
Mon 04:54:00 AM 27.9755 -82.5332 170° South  Level Estimated
Mon 04:55:00 AM 27.9755 -82.5332 170° South  Level Estimated
Mon 04:56:00 AM 27.9755 -82.5332 170° South  Level Estimated
Mon 04:57:00 AM 27.9755 -82.5332 170° South  Level Estimated
Mon 04:58:00 AM 27.9755 -82.5332 170° South  Level Estimated
Mon 04:59:00 AM 27.9755 -82.5332 170° South  Level Estimated
Mon 05:00:00 AM 27.9755 -82.5332 170° South  Level Estimated
Mon 05:01:00 AM 27.9755 -82.5332 170° South  Level Estimated
Mon 05:02:00 AM 27.9755 -82.5332 170° South  Level Estimated
Mon 05:03:00 AM 27.9755 -82.5332 170° South  Level Estimated
Mon 05:04:00 AM 27.9755 -82.5332 170° South  Level Estimated
Mon 05:05:00 AM 27.9755 -82.5332 170° South  Level Estimated

Login

Don't have an account? Register now (free) for customized features, flight alerts, and more!